Terminal Aerodrome Forecast
Issued by NWS

Home | Current Version | Previous Version | Text Only | Print | Product List | Glossary On
Versions: 1 2 3 4 5 6 7 8 9 10 11 12 13 14 15 16 17 18 19 20 21 22
000
FTUS46 KLOX 042300
TAFOXR
TAF
KOXR 042333Z 0500/0524 26012KT P6SM FEW025
     FM050300 27007KT P6SM SCT025
     FM050700 VRB03KT P6SM OVC015
     FM051400 VRB03KT P6SM OVC020
     FM051900 24010KT P6SM BKN025
     FM052200 25012KT P6SM SCT030=

USA.gov is the U.S. government's official web portal to all federal, state and local government web resources and services.